Time;durP1;ratioP1;P1;durP2;ratioP2;P2;SDS_P1;SDS_P2;PMS_P1;PMS_P2;Temp;Humidity;BMP_temperature;BMP_pressure;BME280_temperature;BME280_humidity;BME280_pressure;Samples;Min_cycle;Max_cycle;Signal;HPM_P1;HPM_P2
2023/08/19 00:03:06;;;;;;;0.57;0.57;;;;;;;22.00;61.13;96555.03;10487682;28;20789;-29
2023/08/19 00:08:06;;;;;;;0.50;0.50;;;;;;;21.98;60.84;96555.06;10493801;28;20059;-30
2023/08/19 00:13:07;;;;;;;0.40;0.40;;;;;;;21.96;60.96;96546.59;10484609;28;20306;-30
2023/08/19 00:18:07;;;;;;;0.55;0.55;;;;;;;21.99;61.14;96550.81;10489470;28;20128;-30
2023/08/19 00:23:08;;;;;;;0.50;0.50;;;;;;;22.00;61.05;96555.91;10493308;28;20029;-30
2023/08/19 00:28:08;;;;;;;0.60;0.60;;;;;;;22.00;61.04;96552.50;10486868;28;20038;-30
2023/08/19 00:33:08;;;;;;;0.40;0.40;;;;;;;22.01;61.38;96549.94;10491299;28;20498;-29
2023/08/19 00:38:09;;;;;;;0.63;0.63;;;;;;;22.01;61.09;96549.94;10490359;28;20028;-29
2023/08/19 00:43:10;;;;;;;0.50;0.50;;;;;;;22.01;61.10;96555.03;10491364;28;20566;-30
2023/08/19 00:48:11;;;;;;;0.50;0.50;;;;;;;22.00;60.88;96558.44;10488726;28;20029;-29
2023/08/19 00:53:13;;;;;;;0.70;0.70;;;;;;;21.98;60.90;96560.16;10488518;28;20036;-30
2023/08/19 00:58:15;;;;;;;0.82;0.43;;;;;;;21.96;60.86;96553.41;10490448;28;20166;-30
2023/08/19 01:03:15;;;;;;;0.50;0.50;;;;;;;21.97;60.82;96558.47;10485651;28;20032;-30
2023/08/19 01:08:24;;;;;;;0.70;0.70;;;;;;;21.98;60.85;96565.25;10489779;28;20042;-29
2023/08/19 01:13:30;;;;;;;0.52;0.52;;;;;;;21.98;60.81;96562.72;10476832;28;20391;-29
2023/08/19 01:18:31;;;;;;;0.50;0.40;;;;;;;21.96;60.82;96554.25;10490181;28;20043;-29
2023/08/19 01:23:42;;;;;;;0.43;0.43;;;;;;;21.95;60.85;96555.13;10490459;28;20037;-30
2023/08/19 01:28:42;;;;;;;0.40;0.40;;;;;;;21.96;60.90;96550.84;10486632;28;20486;-30
2023/08/19 01:33:43;;;;;;;2.20;0.50;;;;;;;21.98;60.79;96547.41;10483809;28;20032;-30
2023/08/19 01:38:52;;;;;;;0.40;0.40;;;;;;;21.96;60.77;96551.69;10486207;28;20291;-30
2023/08/19 01:43:54;;;;;;;0.47;0.47;;;;;;;21.90;60.75;96536.50;10482321;28;20418;-30
2023/08/19 01:48:54;;;;;;;0.50;0.50;;;;;;;21.94;60.85;96550.91;10489581;28;20039;-29
2023/08/19 01:53:55;;;;;;;0.30;0.30;;;;;;;21.96;60.74;96551.69;10487091;28;20391;-29
2023/08/19 01:58:56;;;;;;;0.50;0.50;;;;;;;21.96;60.74;96556.81;10489357;28;20035;-28
2023/08/19 02:03:57;;;;;;;0.32;0.32;;;;;;;21.96;60.64;96556.81;10480657;28;20510;-29
2023/08/19 02:08:57;;;;;;;0.50;0.50;;;;;;;21.98;60.60;96559.34;10489042;28;20043;-30
2023/08/19 02:13:57;;;;;;;0.43;0.43;;;;;;;21.95;60.65;96557.66;10490253;28;20155;-30
2023/08/19 02:18:59;;;;;;;0.50;0.50;;;;;;;21.98;60.61;96570.34;10482203;28;20479;-29
2023/08/19 02:24:00;;;;;;;0.43;0.43;;;;;;;21.96;60.62;96573.78;10493508;28;20283;-29
2023/08/19 02:29:00;;;;;;;0.47;0.47;;;;;;;21.97;60.60;96568.69;10489003;28;20032;-30
2023/08/19 02:34:00;;;;;;;0.47;0.47;;;;;;;21.91;60.71;96561.13;10495994;28;20521;-29
2023/08/19 02:39:01;;;;;;;0.50;0.50;;;;;;;21.96;60.57;96572.09;10492387;28;20478;-29
2023/08/19 02:44:01;;;;;;;0.37;0.37;;;;;;;21.97;60.64;96578.88;10495469;28;20036;-31
2023/08/19 02:49:02;;;;;;;0.50;0.50;;;;;;;21.96;60.63;96582.28;10497058;28;20033;-30
2023/08/19 02:54:03;;;;;;;0.40;0.40;;;;;;;21.88;60.76;96568.00;10491614;28;20029;-29
2023/08/19 02:59:03;;;;;;;0.30;0.30;;;;;;;21.96;60.53;96581.44;10495106;28;20036;-29
2023/08/19 03:04:04;;;;;;;0.20;0.20;;;;;;;21.97;60.55;96583.97;10490998;28;20086;-29
2023/08/19 03:09:05;;;;;;;0.77;0.77;;;;;;;21.98;60.73;96584.84;10495015;28;20021;-30
2023/08/19 03:14:05;;;;;;;0.77;0.60;;;;;;;21.99;60.67;96586.50;10492532;28;20039;-30
2023/08/19 03:19:05;;;;;;;0.50;0.50;;;;;;;21.97;60.34;96583.97;10491990;28;20025;-29
2023/08/19 03:24:06;;;;;;;0.40;0.40;;;;;;;21.95;60.58;96583.16;10490667;28;20036;-30
2023/08/19 03:29:07;;;;;;;0.55;0.50;;;;;;;21.96;60.38;96577.19;10480619;28;20298;-29
2023/08/19 03:34:07;;;;;;;0.43;0.43;;;;;;;21.96;60.47;96577.19;10490251;28;20048;-29
2023/08/19 03:39:08;;;;;;;0.40;0.40;;;;;;;21.96;60.50;96571.25;10482441;28;20042;-30
2023/08/19 03:44:09;;;;;;;0.38;0.38;;;;;;;21.96;60.54;96579.75;10491588;28;20402;-29
2023/08/19 03:49:10;;;;;;;0.40;0.40;;;;;;;21.97;60.69;96576.31;10494992;28;20036;-29
2023/08/19 03:54:10;;;;;;;0.50;0.50;;;;;;;21.97;60.17;96576.31;10493615;28;20652;-30
2023/08/19 03:59:10;;;;;;;0.60;0.60;;;;;;;21.95;60.32;96570.41;10492616;28;20313;-29
2023/08/19 04:04:13;;;;;;;0.50;0.50;;;;;;;21.96;60.42;96577.19;10490745;28;20035;-30
2023/08/19 04:09:13;;;;;;;0.40;0.40;;;;;;;21.96;60.49;96579.75;10492349;28;20029;-29
2023/08/19 04:14:14;;;;;;;0.50;0.40;;;;;;;21.94;60.42;96568.75;10490387;28;20032;-29
2023/08/19 04:19:14;;;;;;;0.30;0.30;;;;;;;21.97;60.38;96578.88;10487625;28;20058;-30
2023/08/19 04:24:15;;;;;;;0.40;0.40;;;;;;;21.97;60.12;96589.06;10492253;28;20398;-29
2023/08/19 04:29:15;;;;;;;0.40;0.40;;;;;;;21.97;60.42;96596.72;10485617;28;20039;-29
2023/08/19 04:34:16;;;;;;;0.38;0.38;;;;;;;21.93;60.44;96595.09;10491564;28;20406;-29
2023/08/19 04:39:17;;;;;;;0.40;0.40;;;;;;;21.93;60.41;96597.66;10487183;28;20047;-29
2023/08/19 04:44:17;;;;;;;0.60;0.60;;;;;;;21.99;60.51;96612.81;10490327;28;20032;-29
2023/08/19 04:49:17;;;;;;;0.30;0.30;;;;;;;21.99;60.61;96612.81;10486063;28;20029;-29
2023/08/19 04:54:19;;;;;;;0.47;0.47;;;;;;;21.99;60.55;96617.94;10490976;28;20621;-29
2023/08/19 04:59:20;;;;;;;0.70;0.70;;;;;;;21.94;60.54;96624.81;10490509;28;20498;-29
2023/08/19 05:04:20;;;;;;;0.50;0.50;;;;;;;21.97;60.72;96626.50;10491557;28;20032;-29
2023/08/19 05:09:22;;;;;;;0.40;0.40;;;;;;;21.92;60.60;96629.09;10489066;28;20324;-29
2023/08/19 05:14:22;;;;;;;0.45;0.45;;;;;;;22.00;60.57;96634.94;10484001;28;20395;-29
2023/08/19 05:19:24;;;;;;;1.15;0.40;;;;;;;21.99;60.42;96638.31;10491597;28;20028;-30
2023/08/19 05:24:25;;;;;;;0.40;0.40;;;;;;;21.98;60.49;96643.47;10483793;28;20039;-30
2023/08/19 05:29:25;;;;;;;1.03;0.50;;;;;;;21.98;60.42;96641.75;10490331;28;20467;-30
2023/08/19 05:34:26;;;;;;;0.60;0.50;;;;;;;21.97;60.42;96645.16;10487457;28;20055;-30
2023/08/19 05:39:27;;;;;;;0.50;0.50;;;;;;;22.00;60.52;96655.34;10490971;28;20040;-29
2023/08/19 05:44:27;;;;;;;0.52;0.50;;;;;;;22.00;60.57;96654.47;10486691;28;20294;-30
2023/08/19 05:49:27;;;;;;;0.50;0.50;;;;;;;21.99;60.45;96651.06;10487118;28;20045;-30
2023/08/19 05:54:28;;;;;;;0.40;0.40;;;;;;;21.99;60.36;96645.97;10490793;28;20465;-29
2023/08/19 05:59:28;;;;;;;0.30;0.30;;;;;;;21.97;60.50;96646.88;10492107;28;20028;-29
2023/08/19 06:04:28;;;;;;;0.50;0.50;;;;;;;21.94;60.52;96645.22;10499171;28;20282;-30
2023/08/19 06:09:29;;;;;;;0.50;0.50;;;;;;;21.98;60.39;96657.03;10490005;28;20058;-30
2023/08/19 06:14:29;;;;;;;0.30;0.30;;;;;;;21.99;60.36;96661.25;10495035;28;20330;-29
2023/08/19 06:19:30;;;;;;;0.50;0.50;;;;;;;22.01;60.40;96671.44;10496253;28;20482;-29
2023/08/19 06:24:30;;;;;;;0.40;0.40;;;;;;;22.00;60.54;96670.63;10489886;28;20286;-29
2023/08/19 06:29:30;;;;;;;0.43;0.43;;;;;;;21.98;60.61;96669.78;10497722;28;20046;-29
2023/08/19 06:34:31;;;;;;;0.23;0.23;;;;;;;22.00;60.52;96679.97;10493285;28;20498;-29
2023/08/19 06:39:33;;;;;;;0.30;0.30;;;;;;;22.01;60.62;96682.50;10497152;28;20120;-29
2023/08/19 06:44:38;;;;;;;0.63;0.50;;;;;;;22.02;60.71;96683.34;10493724;28;20055;-30
2023/08/19 06:49:39;;;;;;;0.40;0.35;;;;;;;22.02;60.74;96689.28;10496981;28;20038;-30
2023/08/19 06:54:39;;;;;;;0.40;0.40;;;;;;;22.01;60.46;96687.59;10490417;28;20509;-29
2023/08/19 06:59:41;;;;;;;0.40;0.40;;;;;;;22.01;60.65;96692.72;10491727;28;20051;-30
2023/08/19 07:04:44;;;;;;;0.70;0.63;;;;;;;22.00;60.54;96687.63;10496406;28;20034;-29
2023/08/19 07:09:45;;;;;;;0.47;0.47;;;;;;;22.02;60.67;96693.53;10492214;28;20036;-30
2023/08/19 07:14:46;;;;;;;0.32;0.32;;;;;;;22.04;60.78;96696.91;10496193;28;20032;-29
2023/08/19 07:19:53;;;;;;;0.50;0.50;;;;;;;22.04;60.62;96697.75;10490271;28;20032;-29
2023/08/19 07:24:54;;;;;;;0.35;0.32;;;;;;;22.03;60.83;96690.13;10488254;28;20060;-29
2023/08/19 07:29:55;;;;;;;0.52;0.52;;;;;;;22.03;60.57;96703.72;10486334;28;20455;-29
2023/08/19 07:34:55;;;;;;;0.50;0.50;;;;;;;22.04;60.65;96710.50;10495290;28;20441;-29
2023/08/19 07:39:57;;;;;;;1.00;0.37;;;;;;;22.03;60.72;96696.06;10488192;28;20024;-29
2023/08/19 07:44:57;;;;;;;0.65;0.50;;;;;;;22.02;60.52;96702.03;10488189;28;20856;-29
2023/08/19 07:49:58;;;;;;;0.90;0.53;;;;;;;22.00;60.76;96703.78;10495140;28;20038;-30
2023/08/19 07:54:58;;;;;;;0.40;0.40;;;;;;;22.06;61.03;96716.41;10485475;28;20032;-29
2023/08/19 07:59:58;;;;;;;0.40;0.40;;;;;;;22.02;60.83;96724.13;10494411;28;20081;-30
2023/08/19 08:04:59;;;;;;;0.50;0.50;;;;;;;22.07;60.70;96727.47;10490628;28;20032;-30
2023/08/19 08:09:59;;;;;;;0.30;0.30;;;;;;;22.06;60.89;96718.97;10490390;28;20811;-29
2023/08/19 08:15:00;;;;;;;0.30;0.30;;;;;;;22.06;60.81;96726.59;10493639;28;20439;-31
2023/08/19 08:20:00;;;;;;;0.50;0.50;;;;;;;22.06;60.96;96730.88;10487309;28;20286;-29
2023/08/19 08:25:04;;;;;;;0.50;0.50;;;;;;;22.07;60.77;96722.38;10493493;28;20063;-30
2023/08/19 08:30:05;;;;;;;0.50;0.50;;;;;;;22.06;60.75;96721.50;10485500;28;20033;-29
2023/08/19 08:35:06;;;;;;;0.40;0.40;;;;;;;22.07;60.60;96730.03;10491106;28;20048;-29
2023/08/19 08:40:07;;;;;;;0.30;0.30;;;;;;;22.06;60.75;96734.25;10492730;28;20037;-29
2023/08/19 08:45:09;;;;;;;0.50;0.50;;;;;;;22.05;60.98;96739.41;10486744;28;20114;-30
2023/08/19 08:50:11;;;;;;;0.52;0.52;;;;;;;22.07;60.83;96738.50;10492325;28;20076;-29
2023/08/19 08:55:12;;;;;;;0.40;0.40;;;;;;;22.05;60.83;96739.41;10485931;28;20040;-29
2023/08/19 09:00:14;;;;;;;0.35;0.35;;;;;;;22.09;61.01;96746.13;10492512;28;20052;-29
2023/08/19 09:05:17;;;;;;;0.50;0.50;;;;;;;22.08;60.96;96750.38;10483932;28;20517;-30
2023/08/19 09:10:23;;;;;;;0.52;0.52;;;;;;;22.09;61.03;96748.69;10491529;28;20039;-30
2023/08/19 09:15:27;;;;;;;0.55;0.55;;;;;;;22.09;61.25;96748.69;10487320;28;20036;-30
2023/08/19 09:20:28;;;;;;;0.30;0.30;;;;;;;22.09;61.03;96744.44;10486046;28;20487;-30
2023/08/19 09:25:30;;;;;;;0.50;0.50;;;;;;;22.09;61.05;96741.88;10491628;28;20104;-29
2023/08/19 09:30:32;;;;;;;0.40;0.40;;;;;;;22.05;61.23;96739.41;10486841;28;20059;-30
2023/08/19 09:35:37;;;;;;;0.40;0.40;;;;;;;22.10;60.93;96747.81;10488087;28;20098;-29
2023/08/19 09:40:38;;;;;;;0.47;0.47;;;;;;;22.10;60.95;96748.66;10488023;28;20055;-29
2023/08/19 09:45:38;;;;;;;0.47;0.47;;;;;;;22.10;61.01;96747.81;10486179;28;20044;-30
2023/08/19 09:50:46;;;;;;;0.57;0.57;;;;;;;22.09;60.89;96741.88;10487997;28;20024;-29
2023/08/19 09:55:48;;;;;;;0.50;0.50;;;;;;;22.10;60.91;96753.78;10485232;28;20035;-29
2023/08/19 10:00:49;;;;;;;0.45;0.45;;;;;;;22.08;60.95;96740.19;10490765;28;20051;-29
2023/08/19 10:05:53;;;;;;;0.50;0.50;;;;;;;22.09;60.95;96747.00;10485513;28;20043;-29
2023/08/19 10:10:53;;;;;;;0.55;0.55;;;;;;;22.08;60.71;96752.94;10484746;28;20021;-31
2023/08/19 10:15:57;;;;;;;0.77;0.63;;;;;;;22.05;60.78;96755.53;10489528;28;20025;-29
2023/08/19 10:21:04;;;;;;;1.25;0.65;;;;;;;22.06;60.66;96761.47;10481237;28;20039;-29
2023/08/19 10:26:05;;;;;;;0.63;0.63;;;;;;;22.07;60.81;96763.16;10490686;28;20032;-30
2023/08/19 10:31:13;;;;;;;1.90;1.10;;;;;;;22.08;60.93;96768.22;10485429;28;20036;-29
2023/08/19 10:36:15;;;;;;;2.65;0.98;;;;;;;22.11;61.24;96765.66;10489944;28;20049;-29
2023/08/19 10:41:24;;;;;;;2.50;1.20;;;;;;;22.10;61.09;96753.78;10482573;28;20036;-29
2023/08/19 10:46:27;;;;;;;1.38;1.10;;;;;;;22.13;61.20;96758.00;10489907;28;20310;-30
2023/08/19 10:52:00;;;;;;;2.58;1.30;;;;;;;22.12;60.94;96752.03;10497324;28;20036;-30
2023/08/19 10:57:12;;;;;;;2.45;1.30;;;;;;;22.13;61.27;96751.16;10494159;28;20028;-29
2023/08/19 11:02:13;;;;;;;1.65;1.30;;;;;;;22.12;61.49;96751.19;10496430;28;20068;-30
2023/08/19 11:07:14;;;;;;;2.60;1.50;;;;;;;22.12;61.12;96749.47;10495163;28;20032;-30
2023/08/19 11:12:17;;;;;;;2.70;1.70;;;;;;;22.12;61.25;96752.03;10495556;28;20035;-30
2023/08/19 11:17:25;;;;;;;2.67;1.38;;;;;;;22.15;61.29;96738.41;10495637;28;20132;-29
2023/08/19 11:22:26;;;;;;;2.00;1.35;;;;;;;22.13;60.84;96750.34;10491357;28;20033;-29
2023/08/19 11:27:26;;;;;;;2.53;1.40;;;;;;;22.14;61.67;96752.84;10495816;28;20036;-29
2023/08/19 11:32:29;;;;;;;2.60;1.43;;;;;;;22.14;61.75;96750.31;10493018;28;20297;-29
2023/08/19 11:37:29;;;;;;;2.60;1.38;;;;;;;22.15;61.85;96757.09;10495167;28;20378;-30
2023/08/19 11:42:30;;;;;;;2.17;1.50;;;;;;;22.15;62.29;96757.09;10486085;28;20119;-31
2023/08/19 11:47:33;;;;;;;1.83;1.43;;;;;;;22.15;61.50;96757.09;10492517;28;20033;-31
2023/08/19 11:52:34;;;;;;;1.25;1.15;;;;;;;22.15;61.46;96762.19;10489855;28;20114;-29
2023/08/19 11:57:36;;;;;;;2.30;2.03;;;;;;;22.16;61.98;96753.66;10487824;28;20493;-30
2023/08/19 12:02:36;;;;;;;2.65;1.80;;;;;;;22.15;61.79;96757.09;10494090;28;20032;-30
2023/08/19 12:07:36;;;;;;;1.83;1.50;;;;;;;22.17;61.49;96770.69;10485367;28;20023;-29
2023/08/19 12:12:37;;;;;;;1.77;1.50;;;;;;;22.18;62.32;96772.38;10493407;28;20078;-29
2023/08/19 12:17:39;;;;;;;1.57;1.27;;;;;;;22.15;62.30;96782.59;10490315;28;20355;-29
2023/08/19 12:22:40;;;;;;;1.95;1.42;;;;;;;22.18;62.35;96786.81;10494042;28;20086;-30
2023/08/19 12:27:40;;;;;;;1.50;1.40;;;;;;;22.20;62.34;96800.38;10484748;28;20089;-29
2023/08/19 12:32:40;;;;;;;1.77;1.27;;;;;;;22.19;62.13;96804.66;10493139;28;20398;-30
2023/08/19 12:37:41;;;;;;;1.93;1.40;;;;;;;22.19;62.66;96819.94;10487857;28;20552;-30
2023/08/19 12:42:41;;;;;;;2.65;1.60;;;;;;;22.20;62.17;96810.56;10491070;28;20037;-29
2023/08/19 12:47:42;;;;;;;2.03;1.50;;;;;;;22.16;62.19;96809.78;10488367;28;20135;-30
2023/08/19 12:52:42;;;;;;;1.70;1.50;;;;;;;22.19;61.98;96806.34;10488515;28;20032;-30
2023/08/19 12:57:43;;;;;;;1.50;1.40;;;;;;;22.18;62.10;96815.72;10492360;28;20390;-30
2023/08/19 13:02:44;;;;;;;2.92;1.63;;;;;;;22.18;62.03;96812.31;10488078;28;20548;-29
2023/08/19 13:07:45;;;;;;;2.03;1.30;;;;;;;22.18;61.97;96819.97;10491210;28;20024;-29
2023/08/19 13:12:48;;;;;;;1.48;1.20;;;;;;;22.19;62.10;96835.25;10487797;28;20287;-30
2023/08/19 13:17:49;;;;;;;1.77;1.20;;;;;;;22.19;62.08;96829.28;10485167;28;20032;-29
2023/08/19 13:22:49;;;;;;;1.37;1.27;;;;;;;22.19;61.85;96834.41;10491427;28;20407;-29
2023/08/19 13:27:49;;;;;;;1.20;1.10;;;;;;;22.18;61.83;96843.78;10485508;28;20392;-29
2023/08/19 13:32:50;;;;;;;1.55;1.00;;;;;;;22.17;61.75;96831.88;10491327;28;20275;-30
2023/08/19 13:37:50;;;;;;;1.57;1.43;;;;;;;22.12;61.68;96823.44;10484473;28;20048;-29
2023/08/19 13:42:50;;;;;;;1.70;1.37;;;;;;;22.19;61.73;96839.50;10486511;28;20478;-29
2023/08/19 13:47:51;;;;;;;2.23;1.23;;;;;;;22.19;61.70;96842.91;10491330;28;20029;-29
2023/08/19 13:52:53;;;;;;;1.47;1.37;;;;;;;22.19;61.61;96850.56;10485143;28;20158;-29
2023/08/19 13:57:53;;;;;;;1.73;1.02;;;;;;;22.18;61.66;96843.78;10491180;28;20063;-30
2023/08/19 14:02:53;;;;;;;1.20;1.10;;;;;;;22.18;61.81;96851.44;10481557;28;20051;-30
2023/08/19 14:07:54;;;;;;;1.30;1.17;;;;;;;22.18;61.77;96843.78;10490480;28;20024;-29
2023/08/19 14:12:54;;;;;;;1.30;1.20;;;;;;;22.19;61.71;96849.69;10488905;28;20028;-29
2023/08/19 14:17:55;;;;;;;1.27;1.17;;;;;;;22.19;61.77;96850.56;10493617;28;20029;-29
2023/08/19 14:22:55;;;;;;;1.47;1.20;;;;;;;22.20;61.71;96847.13;10490669;28;20032;-30
2023/08/19 14:27:56;;;;;;;1.33;1.23;;;;;;;22.19;61.89;96840.34;10495180;28;20032;-30
2023/08/19 14:32:56;;;;;;;1.37;1.27;;;;;;;22.20;61.98;96843.72;10498122;28;20032;-29
2023/08/19 14:37:57;;;;;;;1.40;1.30;;;;;;;22.19;61.87;96842.91;10493575;28;20024;-29
2023/08/19 14:42:58;;;;;;;1.10;1.00;;;;;;;22.19;61.81;96830.16;10497325;28;20028;-30
2023/08/19 14:47:58;;;;;;;1.20;1.10;;;;;;;22.21;61.65;96841.16;10494891;28;20505;-29
2023/08/19 14:52:58;;;;;;;1.33;1.23;;;;;;;22.21;61.75;96838.63;10495667;28;20031;-29
2023/08/19 14:57:59;;;;;;;1.23;1.13;;;;;;;22.19;61.69;96839.50;10496866;28;20028;-30
2023/08/19 15:02:59;;;;;;;1.20;1.10;;;;;;;22.20;62.12;96836.06;10494067;28;20033;-29
2023/08/19 15:07:59;;;;;;;1.17;1.07;;;;;;;22.17;61.71;96831.88;10497044;28;20029;-29
2023/08/19 15:13:00;;;;;;;1.15;1.10;;;;;;;22.21;62.23;96835.22;10489329;28;20359;-31
2023/08/19 15:18:00;;;;;;;1.10;1.07;;;;;;;22.22;62.00;96832.66;10496251;28;20518;-30
2023/08/19 15:23:01;;;;;;;1.23;1.17;;;;;;;22.22;62.41;96842.03;10492451;28;20291;-29
2023/08/19 15:28:01;;;;;;;2.90;1.40;;;;;;;22.23;62.27;96847.09;10492529;28;20295;-30
2023/08/19 15:33:01;;;;;;;1.33;1.23;;;;;;;22.24;62.22;96853.03;10495373;28;20029;-30
2023/08/19 15:38:03;;;;;;;2.20;1.20;;;;;;;22.23;61.96;96851.38;10493052;28;20071;-30
2023/08/19 15:43:05;;;;;;;1.30;1.20;;;;;;;22.23;62.08;96867.50;10495210;28;20036;-29
2023/08/19 15:48:05;;;;;;;0.90;0.90;;;;;;;22.23;62.01;96861.56;10491770;28;20040;-30
2023/08/19 15:53:06;;;;;;;1.15;1.05;;;;;;;22.23;61.92;96870.03;10492502;28;20028;-29
2023/08/19 15:58:06;;;;;;;1.13;1.03;;;;;;;22.20;61.87;96854.78;10494334;28;20036;-29
2023/08/19 16:03:06;;;;;;;1.00;0.97;;;;;;;22.22;61.79;96870.91;10486157;28;20035;-30
2023/08/19 16:08:09;;;;;;;1.20;1.10;;;;;;;22.22;61.83;96875.19;10494533;28;20630;-30
2023/08/19 16:13:10;;;;;;;0.80;0.80;;;;;;;22.22;61.02;96875.19;10484641;28;20146;-30
2023/08/19 16:18:10;;;;;;;1.20;1.10;;;;;;;22.22;61.71;96886.22;10492238;28;20085;-30
2023/08/19 16:23:11;;;;;;;2.80;1.43;;;;;;;22.23;61.73;96897.28;10490555;28;20033;-29
2023/08/19 16:28:11;;;;;;;2.20;1.70;;;;;;;22.22;62.03;96898.97;10489638;28;20035;-30
2023/08/19 16:33:12;;;;;;;1.47;1.37;;;;;;;22.24;62.29;96901.50;10492973;28;20039;-30
2023/08/19 16:38:12;;;;;;;4.20;1.45;;;;;;;22.23;61.96;96905.75;10487825;28;20036;-29
2023/08/19 16:43:15;;;;;;;1.93;1.67;;;;;;;22.22;61.78;96901.53;10492504;28;20131;-30
2023/08/19 16:48:15;;;;;;;2.55;1.30;;;;;;;22.23;61.63;96897.28;10486524;28;20316;-30
2023/08/19 16:53:15;;;;;;;1.60;1.50;;;;;;;22.21;61.66;96897.28;10492374;28;20040;-30
2023/08/19 16:58:16;;;;;;;1.47;1.37;;;;;;;22.23;61.72;96898.09;10488344;28;20395;-30
2023/08/19 17:03:16;;;;;;;3.33;1.57;;;;;;;22.22;61.69;96896.41;10487122;28;20364;-29
2023/08/19 17:08:16;;;;;;;2.73;2.30;;;;;;;22.22;61.66;96895.59;10489701;28;20032;-30
2023/08/19 17:13:17;;;;;;;1.60;1.50;;;;;;;22.22;61.72;96911.72;10489162;28;20025;-28
2023/08/19 17:18:17;;;;;;;1.57;1.20;;;;;;;22.23;61.64;96912.59;10491768;28;20043;-30
2023/08/19 17:23:18;;;;;;;1.63;1.40;;;;;;;22.18;61.41;96915.19;10486010;28;20043;-30
2023/08/19 17:28:19;;;;;;;1.40;1.30;;;;;;;22.22;61.55;96921.94;10491634;28;20400;-30
2023/08/19 17:33:19;;;;;;;1.23;1.13;;;;;;;22.23;61.50;96920.22;10490075;28;20036;-30
2023/08/19 17:38:19;;;;;;;1.67;1.47;;;;;;;22.22;61.59;96924.47;10491184;28;20047;-30
2023/08/19 17:43:20;;;;;;;1.85;1.30;;;;;;;22.17;61.57;96910.09;10482153;28;20486;-30
2023/08/19 17:48:21;;;;;;;2.10;1.37;;;;;;;22.21;61.59;96929.59;10487102;28;20040;-29
2023/08/19 17:53:22;;;;;;;1.58;1.48;;;;;;;22.21;61.46;96927.88;10495297;28;20477;-29
2023/08/19 17:58:23;;;;;;;1.50;1.23;;;;;;;22.22;61.30;96931.31;10491823;28;20516;-29
2023/08/19 18:03:24;;;;;;;1.20;1.10;;;;;;;22.23;61.56;96938.09;10498869;28;20043;-30
2023/08/19 18:08:25;;;;;;;1.20;1.10;;;;;;;22.21;61.37;96930.44;10491401;28;20501;-29
2023/08/19 18:13:25;;;;;;;1.02;1.00;;;;;;;22.18;61.58;96924.53;10498238;28;20054;-30
2023/08/19 18:18:25;;;;;;;1.30;1.20;;;;;;;22.22;61.49;96929.56;10496217;28;20032;-29
2023/08/19 18:23:26;;;;;;;1.70;1.10;;;;;;;22.23;61.37;96936.34;10491758;28;20033;-30
2023/08/19 18:28:26;;;;;;;1.20;1.10;;;;;;;22.22;61.42;96937.22;10495915;28;20036;-30
2023/08/19 18:33:26;;;;;;;1.10;1.00;;;;;;;22.23;61.47;96938.09;10494895;28;20066;-29
2023/08/19 18:38:27;;;;;;;1.17;1.13;;;;;;;22.22;61.45;96942.31;10497732;28;20055;-31
2023/08/19 18:43:27;;;;;;;1.10;1.00;;;;;;;22.23;61.40;96943.19;10493992;28;20090;-28
2023/08/19 18:48:27;;;;;;;1.50;1.40;;;;;;;22.21;61.41;96935.53;10497405;28;20040;-29
2023/08/19 18:53:28;;;;;;;1.00;1.00;;;;;;;22.20;61.43;96936.41;10495512;28;20299;-30
2023/08/19 18:58:28;;;;;;;1.23;1.13;;;;;;;22.21;61.43;96935.53;10496881;28;20115;-30
2023/08/19 19:03:29;;;;;;;1.37;1.27;;;;;;;22.23;61.42;96940.63;10492187;28;20307;-30
2023/08/19 19:08:29;;;;;;;1.30;1.20;;;;;;;22.23;61.41;96951.66;10493913;28;20294;-29
2023/08/19 19:13:29;;;;;;;1.23;1.13;;;;;;;22.22;61.52;96962.72;10496653;28;20036;-29
2023/08/19 19:18:30;;;;;;;1.27;1.17;;;;;;;22.22;61.41;96962.72;10491729;28;20029;-30
2023/08/19 19:23:30;;;;;;;1.80;1.70;;;;;;;22.22;61.32;96965.28;10496051;28;20321;-30
2023/08/19 19:28:31;;;;;;;1.30;1.20;;;;;;;22.22;61.42;96974.66;10488390;28;20486;-30
2023/08/19 19:33:31;;;;;;;1.40;1.30;;;;;;;22.24;61.22;96995.88;10493003;28;20373;-29
2023/08/19 19:38:31;;;;;;;0.98;0.98;;;;;;;22.21;61.42;96994.22;10495568;28;20033;-29
2023/08/19 19:43:32;;;;;;;1.10;1.00;;;;;;;22.22;61.33;96995.91;10491041;28;20101;-29
2023/08/19 19:48:32;;;;;;;1.30;1.00;;;;;;;22.22;61.22;96990.78;10487098;28;20074;-29
2023/08/19 19:53:33;;;;;;;1.60;1.00;;;;;;;22.22;61.22;96990.78;10494443;28;20101;-29
2023/08/19 19:58:33;;;;;;;1.10;1.00;;;;;;;22.21;61.16;96996.75;10491151;28;20037;-31
2023/08/19 20:03:33;;;;;;;0.87;0.83;;;;;;;22.22;61.27;96993.34;10494121;28;20094;-30
2023/08/19 20:08:34;;;;;;;1.37;1.13;;;;;;;22.22;61.24;97000.16;10488662;28;20038;-30
2023/08/19 20:13:34;;;;;;;0.93;0.93;;;;;;;22.22;61.24;96997.63;10493513;28;20744;-29
2023/08/19 20:18:34;;;;;;;1.10;1.10;;;;;;;22.22;61.35;97005.28;10484467;28;20547;-29
2023/08/19 20:23:36;;;;;;;2.15;1.20;;;;;;;22.23;61.39;97014.59;10492022;28;20294;-29
2023/08/19 20:28:36;;;;;;;1.30;0.93;;;;;;;22.23;61.30;97015.44;10491626;28;20027;-30
2023/08/19 20:33:36;;;;;;;1.20;1.07;;;;;;;22.23;61.21;97023.09;10488508;28;20029;-28
2023/08/19 20:38:37;;;;;;;1.00;1.00;;;;;;;22.23;61.30;97019.72;10493792;28;20082;-29
2023/08/19 20:43:37;;;;;;;1.33;1.23;;;;;;;22.21;61.27;97022.25;10486689;28;20035;-30
2023/08/19 20:48:38;;;;;;;1.10;1.00;;;;;;;22.21;61.16;97034.16;10492820;28;20028;-29
2023/08/19 20:53:38;;;;;;;1.23;1.13;;;;;;;22.21;60.98;97032.47;10486216;28;20032;-30
2023/08/19 20:58:38;;;;;;;1.20;1.10;;;;;;;22.21;61.17;97027.38;10492188;28;20077;-30
2023/08/19 21:03:39;;;;;;;1.10;1.00;;;;;;;22.20;61.14;97025.69;10483657;28;20043;-29
2023/08/19 21:08:39;;;;;;;1.30;1.20;;;;;;;22.21;61.17;97027.38;10489265;28;20025;-29
2023/08/19 21:13:40;;;;;;;1.07;1.07;;;;;;;22.22;61.23;97030.78;10489529;28;20309;-29
2023/08/19 21:18:40;;;;;;;1.20;1.10;;;;;;;22.22;61.27;97041.81;10485473;28;20029;-30
2023/08/19 21:23:40;;;;;;;0.83;0.83;;;;;;;22.22;61.17;97031.59;10489560;28;20103;-29
2023/08/19 21:28:41;;;;;;;1.30;1.20;;;;;;;22.22;61.28;97029.06;10483601;28;20024;-30
2023/08/19 21:33:41;;;;;;;1.13;1.00;;;;;;;22.21;61.20;97032.47;10491319;28;20449;-30
2023/08/19 21:38:42;;;;;;;1.13;1.03;;;;;;;22.22;61.32;97031.59;10483803;28;20752;-29
2023/08/19 21:43:42;;;;;;;1.20;1.10;;;;;;;22.21;61.08;97027.38;10491138;28;20032;-30
2023/08/19 21:48:42;;;;;;;1.10;1.00;;;;;;;22.20;61.02;97020.56;10486303;28;20151;-29
2023/08/19 21:53:43;;;;;;;0.80;0.80;;;;;;;22.20;61.02;97024.81;10487964;28;20524;-30
2023/08/19 21:58:43;;;;;;;0.80;0.80;;;;;;;22.22;61.14;97021.41;10488814;28;20352;-29
2023/08/19 22:03:44;;;;;;;1.13;1.00;;;;;;;22.21;61.16;97027.38;10486748;28;20032;-34
2023/08/19 22:08:44;;;;;;;0.82;0.82;;;;;;;22.24;61.24;97034.97;10488647;28;20037;-29
2023/08/19 22:13:44;;;;;;;0.80;0.80;;;;;;;22.23;61.17;97038.38;10482353;28;20398;-29
2023/08/19 22:18:45;;;;;;;1.00;1.00;;;;;;;22.21;61.09;97029.91;10490788;28;20490;-30
2023/08/19 22:23:45;;;;;;;1.30;1.20;;;;;;;22.22;60.99;97029.06;10481178;28;20044;-30
2023/08/19 22:28:46;;;;;;;1.20;1.10;;;;;;;22.23;61.14;97030.75;10490689;28;20036;-29
2023/08/19 22:33:48;;;;;;;0.83;0.80;;;;;;;22.24;61.20;97040.06;10485649;28;20040;-29
2023/08/19 22:38:50;;;;;;;1.05;0.98;;;;;;;22.23;61.11;97035.84;10493479;28;20035;-29
2023/08/19 22:43:50;;;;;;;0.80;0.80;;;;;;;22.24;61.26;97036.69;10496182;28;20021;-30
2023/08/19 22:48:51;;;;;;;0.90;0.90;;;;;;;22.24;61.17;97032.44;10492140;28;20024;-30
2023/08/19 22:53:51;;;;;;;1.00;0.98;;;;;;;22.24;61.19;97036.69;10497170;28;20119;-29
2023/08/19 22:58:52;;;;;;;0.90;0.90;;;;;;;22.24;61.11;97036.69;10489873;28;20475;-30
2023/08/19 23:03:52;;;;;;;0.80;0.80;;;;;;;22.20;61.15;97030.78;10496717;28;20036;-29
2023/08/19 23:08:52;;;;;;;0.90;0.90;;;;;;;22.23;61.05;97030.75;10493006;28;20089;-29
2023/08/19 23:13:53;;;;;;;0.93;0.90;;;;;;;22.23;61.08;97035.84;10494690;28;20046;-30
2023/08/19 23:18:53;;;;;;;0.80;0.80;;;;;;;22.23;60.98;97038.38;10494984;28;20039;-30